Terminal Aerodrome Forecast
Issued by NWS

Current Version | Previous Version | Graphics & Text | Print | Product List | Glossary On
Versions: 1 2 3 4 5 6 7 8 9 10 11 12 13 14 15 16 17
000
FTUS41 KRNK 201139
TAFLWB
TAF
KLWB 201139Z 2012/2112 00000KT 1/4SM FG OVC001
     FM201330 23003KT P6SM FEW050
     FM210800 00000KT 1/4SM FG OVC001=

USA.gov is the U.S. government's official web portal to all federal, state and local government web resources and services.